Etusivu
METAR-TAF:

METAR-TAF

Lentoasemat :

Gran Canaria, Espanja

Gran Canarian lentoasema

Leveyspiiri: 27-56N, Pituuspiiri: 015-23W, korkeus merenpinnasta: 23 m

Tämänhetkinen sää

Tämä raportti tehtiin 43 minuuttia sitten, kello 19.30 UTC
Tuuli 16 kn pohjoisesta
Lämpötila 22°C
Kosteus 57%
Ilmanpaine 1017 hPa
Näkyvyys 10 km tai enemmän
Muutamia pilviä 3000 ft:n korkeudessa

METAR: GCLP 251930Z 36016KT 9999 FEW030 22/13 Q1017 NOSIG

Aika: 21:13 (20:13 UTC)

Sääennuste

Tämä raportti tehtiin 6 tuntia ja 13 minuuttia sitten, kello 14.00 UTC
Ennuste voimassa 25. päivästä klo 15 UTC - 26. päivään klo 15 UTC
Tuuli 18 kn pohjoisesta
Näkyvyys 10 km tai enemmän
Hajanaisia pilviä 3500 ft:n korkeudessa
Todennäköisyys 40% :
Ajoittain
25. päivästä klo 15 UTC - 25. päivään klo 21 UTC
Tuuli 15 kn pohjoisesta puuskistuen 25 kn:hen

TAF: GCLP 251400Z 2515/2615 01018KT 9999 SCT035 TX26/2613Z TN20/2606Z PROB40 TEMPO 2515/2521 01015G25KT

Säähavainnot ja -ennusteet yli 4000 lentoasemalta (METAR- ja TAF-raportit).

Käytössä olevat sääasemat on merkitty karttaan keltaisilla ja punaisilla pisteillä.

Aseta hiiri pisteen päälle nähdäksesi sääaseman nimen.

Klikkaa sitten nähdäksesi säähavainnot ja -ennusteet.

Kartan vaihtaminen: klikkaa mustalla rastilla varustettuja vihreitä pisteitä, niin voit zoomata sisään; viivalla varustettua vihreää pistettä, niin voit zoomata ulos tai vihreitä nuolia, niin pääset viereisille kartoille.


METAR-TAF: